createdAt,value
2019-05-19T00:01:26.639Z,12.89
2019-05-19T00:03:55.316Z,12.92
2019-05-19T00:06:23.910Z,12.94
2019-05-19T00:08:52.390Z,12.97
2019-05-19T00:11:20.898Z,12.96
2019-05-19T00:13:49.419Z,12.96
2019-05-19T00:16:17.945Z,12.96
2019-05-19T00:18:46.465Z,13.03
2019-05-19T00:21:14.952Z,13.10
2019-05-19T00:23:43.456Z,13.14
2019-05-19T00:26:12.037Z,13.13
2019-05-19T00:28:40.604Z,13.16
2019-05-19T00:31:09.130Z,13.18
2019-05-19T00:33:37.667Z,13.14
2019-05-19T00:36:06.241Z,13.12
2019-05-19T00:38:34.724Z,13.12
2019-05-19T00:41:03.310Z,13.15
2019-05-19T00:43:31.887Z,13.21
2019-05-19T00:46:00.678Z,13.24
2019-05-19T00:48:29.238Z,13.20
2019-05-19T00:50:57.819Z,13.12
2019-05-19T00:53:26.388Z,13.03
2019-05-19T00:55:55.819Z,13.04
2019-05-19T00:58:27.259Z,13.10
2019-05-19T01:00:55.752Z,13.14
2019-05-19T01:03:24.257Z,13.21
2019-05-19T01:05:52.760Z,13.28
2019-05-19T01:08:21.265Z,13.25
2019-05-19T01:10:49.812Z,13.18
2019-05-19T01:13:18.350Z,13.13
2019-05-19T01:15:46.841Z,13.13
2019-05-19T01:18:15.365Z,13.14
2019-05-19T01:20:44.035Z,13.18
2019-05-19T01:23:12.690Z,13.21
2019-05-19T01:25:41.242Z,13.18
2019-05-19T01:28:09.718Z,13.18
2019-05-19T01:30:38.349Z,13.15
2019-05-19T01:33:06.852Z,13.17
2019-05-19T01:35:35.373Z,13.19
2019-05-19T01:38:03.871Z,13.22
2019-05-19T01:40:32.467Z,13.25
2019-05-19T01:43:00.967Z,13.29
2019-05-19T01:45:29.539Z,13.31
2019-05-19T01:47:58.059Z,13.30
2019-05-19T01:50:26.618Z,13.31
2019-05-19T01:52:55.117Z,13.31
2019-05-19T01:55:23.637Z,13.29
2019-05-19T01:57:52.134Z,13.28
2019-05-19T02:00:21.686Z,13.25
2019-05-19T02:02:50.204Z,13.23
2019-05-19T02:05:18.857Z,13.25
2019-05-19T02:07:47.361Z,13.28
2019-05-19T02:10:16.123Z,13.31
2019-05-19T02:12:44.724Z,13.32
2019-05-19T02:15:15.075Z,13.32
2019-05-19T02:17:43.562Z,13.33
2019-05-19T02:20:12.496Z,13.34
2019-05-19T02:22:41.005Z,13.36
2019-05-19T02:25:09.973Z,13.37
2019-05-19T02:27:38.471Z,13.37
2019-05-19T02:30:10.467Z,13.34
2019-05-19T02:32:39.102Z,13.33
2019-05-19T02:35:08.201Z,13.35
2019-05-19T02:37:36.858Z,13.31
2019-05-19T02:40:08.920Z,13.34
2019-05-19T02:42:40.448Z,13.32
2019-05-19T02:45:09.946Z,13.31
2019-05-19T02:47:40.673Z,13.29
2019-05-19T02:50:10.188Z,13.31
2019-05-19T02:52:40.897Z,13.31
2019-05-19T02:55:09.593Z,13.30
2019-05-19T02:57:40.402Z,13.25
2019-05-19T03:00:09.566Z,13.22
2019-05-19T03:02:38.086Z,13.14
2019-05-19T03:05:06.935Z,13.12
2019-05-19T03:07:35.381Z,13.12
2019-05-19T03:10:05.000Z,13.00
2019-05-19T03:12:33.478Z,12.91
2019-05-19T03:15:01.921Z,12.82
2019-05-19T03:17:30.383Z,12.81
2019-05-19T03:19:58.879Z,12.80
2019-05-19T03:22:27.366Z,12.84
2019-05-19T03:24:55.836Z,12.85
2019-05-19T03:27:24.329Z,12.90
2019-05-19T03:29:54.431Z,12.92
2019-05-19T03:32:30.255Z,12.87
2019-05-19T03:34:58.734Z,12.78
2019-05-19T03:37:27.151Z,12.75
2019-05-19T03:39:55.641Z,12.69
2019-05-19T03:42:24.107Z,12.71
2019-05-19T03:44:52.605Z,12.66
2019-05-19T03:47:21.051Z,12.63
2019-05-19T03:49:49.557Z,12.64
2019-05-19T03:52:18.125Z,12.61
2019-05-19T03:54:46.617Z,12.63
2019-05-19T03:57:15.121Z,12.58
2019-05-19T03:59:43.586Z,12.52
2019-05-19T04:02:12.099Z,12.55
2019-05-19T04:04:40.590Z,12.56
2019-05-19T04:07:09.061Z,12.55
2019-05-19T04:09:37.554Z,12.55
2019-05-19T04:12:06.008Z,12.55
2019-05-19T04:14:34.483Z,12.57
2019-05-19T04:17:02.952Z,12.57
2019-05-19T04:19:31.433Z,12.55
2019-05-19T04:21:59.920Z,12.58
2019-05-19T04:24:28.401Z,12.58
2019-05-19T04:26:56.873Z,12.63
2019-05-19T04:29:25.352Z,12.67
2019-05-19T04:31:53.869Z,12.72
2019-05-19T04:34:22.361Z,12.66
2019-05-19T04:37:10.285Z,12.68
2019-05-19T04:39:38.765Z,12.70
2019-05-19T04:42:07.257Z,12.63
2019-05-19T04:44:35.713Z,12.59
2019-05-19T04:47:04.188Z,12.61
2019-05-19T04:49:32.656Z,12.64
2019-05-19T04:52:06.690Z,12.63
2019-05-19T04:54:31.340Z,12.64
2019-05-19T04:56:59.758Z,12.67
2019-05-19T04:59:28.217Z,12.68
2019-05-19T05:01:56.693Z,12.70
2019-05-19T05:04:29.148Z,12.70
2019-05-19T05:06:55.452Z,12.67
2019-05-19T05:09:23.949Z,12.67
2019-05-19T05:11:52.436Z,12.70
2019-05-19T05:14:20.919Z,12.68
2019-05-19T05:16:49.406Z,12.61
2019-05-19T05:19:17.884Z,12.59
2019-05-19T05:21:46.354Z,12.59
2019-05-19T05:24:14.837Z,12.60
2019-05-19T05:26:43.315Z,12.61
2019-05-19T05:29:11.812Z,12.65
2019-05-19T05:31:40.271Z,12.69
2019-05-19T05:34:08.764Z,12.66
2019-05-19T05:36:37.262Z,12.66
2019-05-19T05:39:06.800Z,12.68
2019-05-19T05:41:35.459Z,12.60
2019-05-19T05:44:04.010Z,12.54
2019-05-19T05:46:32.465Z,12.49
2019-05-19T05:49:00.960Z,12.52
2019-05-19T05:51:29.439Z,12.62
2019-05-19T05:53:57.939Z,12.65
2019-05-19T05:56:26.398Z,12.68
2019-05-19T05:58:54.866Z,12.69
2019-05-19T06:01:23.364Z,12.67
2019-05-19T06:03:51.808Z,12.61
2019-05-19T06:06:20.269Z,12.62
2019-05-19T06:08:48.760Z,12.68
2019-05-19T06:11:17.222Z,12.71
2019-05-19T06:13:45.809Z,12.72
2019-05-19T06:16:14.388Z,12.82
2019-05-19T06:18:42.880Z,12.85
2019-05-19T06:21:11.422Z,12.85
2019-05-19T06:23:39.908Z,12.81
2019-05-19T06:26:08.399Z,12.79
2019-05-19T06:28:36.848Z,12.79
2019-05-19T06:31:05.339Z,12.80
2019-05-19T06:33:33.883Z,12.78
2019-05-19T06:36:02.346Z,12.83
2019-05-19T06:38:30.842Z,12.88
2019-05-19T06:40:59.394Z,12.96
2019-05-19T06:43:28.062Z,13.06
2019-05-19T06:45:56.500Z,13.15
2019-05-19T06:48:25.028Z,13.20
2019-05-19T06:50:53.528Z,13.26
2019-05-19T06:53:21.999Z,13.31
2019-05-19T06:55:50.496Z,13.36
2019-05-19T06:58:18.945Z,13.38
2019-05-19T07:00:47.408Z,13.29
2019-05-19T07:03:15.976Z,13.21
2019-05-19T07:05:44.447Z,13.23
2019-05-19T07:08:13.023Z,13.27
2019-05-19T07:10:41.501Z,13.35
2019-05-19T07:13:09.976Z,13.40
2019-05-19T07:15:38.438Z,13.37
2019-05-19T07:18:06.919Z,13.34
2019-05-19T07:20:35.404Z,13.34
2019-05-19T07:23:03.926Z,13.38
2019-05-19T07:25:32.397Z,13.44
2019-05-19T07:28:00.899Z,13.39
2019-05-19T07:30:29.381Z,13.32
2019-05-19T07:32:57.833Z,13.28
2019-05-19T07:35:26.360Z,13.29
2019-05-19T07:37:54.857Z,13.37
2019-05-19T07:40:23.419Z,13.43
2019-05-19T07:42:51.894Z,13.44
2019-05-19T07:45:20.587Z,13.52
2019-05-19T07:47:49.065Z,13.57
2019-05-19T07:50:17.520Z,13.56
2019-05-19T07:52:46.008Z,13.50
2019-05-19T07:55:14.801Z,13.45
2019-05-19T07:57:43.262Z,13.46
2019-05-19T08:00:12.516Z,13.54
2019-05-19T08:02:40.982Z,13.64
2019-05-19T08:05:09.867Z,13.75
2019-05-19T08:07:38.396Z,13.88
2019-05-19T08:10:07.651Z,14.01
2019-05-19T08:12:36.133Z,13.99
2019-05-19T08:15:09.381Z,13.99
2019-05-19T08:17:37.903Z,14.02
2019-05-19T08:20:08.048Z,14.04
2019-05-19T08:22:36.554Z,14.05
2019-05-19T08:25:09.315Z,14.07
2019-05-19T08:27:37.791Z,14.20
2019-05-19T08:30:10.215Z,14.33
2019-05-19T08:32:38.670Z,14.41
2019-05-19T08:35:07.893Z,14.46
2019-05-19T08:37:36.380Z,14.45
2019-05-19T08:40:05.806Z,14.35
2019-05-19T08:42:34.285Z,14.37
2019-05-19T08:45:02.853Z,14.39
2019-05-19T08:47:31.336Z,14.36
2019-05-19T08:49:59.826Z,14.37
2019-05-19T08:52:28.308Z,14.45
2019-05-19T08:54:56.787Z,14.53
2019-05-19T08:57:25.343Z,14.50
2019-05-19T08:59:53.865Z,14.52
2019-05-19T09:02:22.335Z,14.53
2019-05-19T09:04:50.825Z,14.60
2019-05-19T09:07:19.414Z,14.61
2019-05-19T09:09:48.053Z,14.58
2019-05-19T09:12:16.566Z,14.64
2019-05-19T09:14:45.053Z,14.72
2019-05-19T09:17:13.550Z,14.80
2019-05-19T09:19:42.043Z,14.79
2019-05-19T09:22:10.504Z,14.77
2019-05-19T09:24:38.957Z,14.81
2019-05-19T09:27:07.443Z,14.83
2019-05-19T09:29:36.038Z,14.91
2019-05-19T09:32:04.579Z,15.00
2019-05-19T09:34:33.204Z,15.01
2019-05-19T09:37:01.664Z,15.01
2019-05-19T09:39:30.228Z,15.06
2019-05-19T09:41:58.793Z,15.09
2019-05-19T09:44:28.087Z,15.17
2019-05-19T09:46:56.568Z,15.17
2019-05-19T09:49:34.206Z,15.30
2019-05-19T09:52:04.226Z,15.38
2019-05-19T09:54:44.014Z,15.39
2019-05-19T09:57:02.981Z,15.45
2019-05-19T09:59:31.629Z,15.52
2019-05-19T10:02:00.115Z,15.58
2019-05-19T10:04:28.686Z,15.62
2019-05-19T10:06:57.229Z,15.65
2019-05-19T10:09:29.041Z,15.67
2019-05-19T10:12:02.517Z,15.70
2019-05-19T10:14:30.994Z,15.81
2019-05-19T10:16:59.520Z,15.87
2019-05-19T10:19:27.992Z,16.01
2019-05-19T10:21:56.533Z,16.04
2019-05-19T10:24:25.053Z,16.10
2019-05-19T10:26:53.505Z,16.24
2019-05-19T10:29:21.987Z,16.36
2019-05-19T10:31:54.231Z,16.41
2019-05-19T10:34:20.797Z,16.41
2019-05-19T10:36:49.315Z,16.51
2019-05-19T10:39:17.804Z,16.53
2019-05-19T10:41:46.236Z,16.49
2019-05-19T10:44:14.729Z,16.53
2019-05-19T10:46:43.209Z,16.69
2019-05-19T10:49:11.673Z,16.87
2019-05-19T10:51:40.142Z,16.93
2019-05-19T10:54:08.722Z,16.94
2019-05-19T10:56:37.206Z,17.06
2019-05-19T10:59:05.667Z,17.09
2019-05-19T11:01:34.179Z,17.02
2019-05-19T11:04:02.735Z,16.81
2019-05-19T11:06:31.190Z,16.78
2019-05-19T11:08:59.696Z,16.81
2019-05-19T11:11:28.193Z,16.83
2019-05-19T11:13:56.763Z,16.82
2019-05-19T11:16:25.222Z,16.80
2019-05-19T11:18:53.724Z,16.77
2019-05-19T11:21:22.236Z,16.80
2019-05-19T11:23:50.840Z,16.74
2019-05-19T11:26:19.261Z,16.78
2019-05-19T11:28:47.862Z,16.85
2019-05-19T11:31:16.304Z,16.81
2019-05-19T11:33:44.781Z,16.81
2019-05-19T11:36:13.345Z,16.80
2019-05-19T11:38:41.819Z,16.86
2019-05-19T11:41:10.290Z,16.93
2019-05-19T11:43:39.332Z,16.93
2019-05-19T11:46:07.794Z,16.93
2019-05-19T11:48:36.248Z,17.01
2019-05-19T11:51:04.717Z,17.16
2019-05-19T11:53:33.214Z,17.27
2019-05-19T11:56:07.165Z,17.36
2019-05-19T11:58:31.947Z,17.42
2019-05-19T12:01:00.442Z,17.57
2019-05-19T12:03:28.909Z,17.80
2019-05-19T12:05:57.387Z,17.83
2019-05-19T12:08:25.939Z,17.84
2019-05-19T12:10:54.467Z,17.68
2019-05-19T12:13:22.937Z,17.59
2019-05-19T12:15:51.520Z,17.55
2019-05-19T12:18:19.961Z,17.48
2019-05-19T12:20:48.539Z,17.49
2019-05-19T12:23:16.989Z,17.37
2019-05-19T12:25:45.469Z,17.32
2019-05-19T12:28:13.968Z,17.32
2019-05-19T12:30:42.431Z,17.33
2019-05-19T12:33:10.927Z,17.33
2019-05-19T12:35:39.407Z,17.34
2019-05-19T12:38:07.911Z,17.46
2019-05-19T12:40:36.406Z,17.55
2019-05-19T12:43:05.067Z,17.60
2019-05-19T12:45:33.580Z,17.58
2019-05-19T12:48:02.312Z,17.60
2019-05-19T12:50:30.940Z,17.51
2019-05-19T12:52:59.437Z,17.47
2019-05-19T12:55:27.935Z,17.42
2019-05-19T12:57:56.565Z,17.35
2019-05-19T13:00:25.069Z,17.25
2019-05-19T13:02:53.590Z,17.18
2019-05-19T13:05:22.285Z,17.12
2019-05-19T13:07:50.862Z,17.01
2019-05-19T13:10:19.419Z,16.99
2019-05-19T13:12:47.957Z,17.04
2019-05-19T13:15:16.831Z,17.10
2019-05-19T13:17:45.342Z,17.12
2019-05-19T13:20:14.213Z,17.20
2019-05-19T13:22:42.697Z,17.24
2019-05-19T13:25:11.302Z,17.23
2019-05-19T13:27:39.787Z,17.08
2019-05-19T13:30:08.534Z,17.06
2019-05-19T13:32:37.110Z,17.21
2019-05-19T13:35:07.246Z,17.21
2019-05-19T13:37:35.738Z,17.17
2019-05-19T13:40:05.789Z,17.18
2019-05-19T13:42:34.314Z,17.21
2019-05-19T13:45:02.868Z,17.11
2019-05-19T13:47:31.413Z,17.11
2019-05-19T13:50:00.017Z,17.15
2019-05-19T13:52:28.557Z,17.06
2019-05-19T13:54:57.083Z,16.92
2019-05-19T13:57:25.580Z,16.91
2019-05-19T13:59:54.105Z,16.95
2019-05-19T14:02:22.630Z,16.96
2019-05-19T14:04:51.254Z,17.02
2019-05-19T14:07:19.746Z,17.10
2019-05-19T14:09:48.277Z,17.12
2019-05-19T14:12:16.772Z,17.08
2019-05-19T14:14:45.398Z,17.01
2019-05-19T14:17:13.977Z,17.05
2019-05-19T14:19:42.453Z,16.99
2019-05-19T14:22:10.989Z,16.98
2019-05-19T14:24:39.502Z,16.98
2019-05-19T14:27:08.073Z,17.00
2019-05-19T14:29:36.588Z,17.00
2019-05-19T14:32:05.087Z,17.03
2019-05-19T14:34:33.631Z,17.05
2019-05-19T14:37:02.200Z,17.02
2019-05-19T14:39:30.710Z,17.06
2019-05-19T14:42:00.842Z,16.90
2019-05-19T14:44:29.396Z,16.89
2019-05-19T14:46:57.921Z,16.86
2019-05-19T14:49:26.403Z,16.80
2019-05-19T14:51:54.894Z,16.80
2019-05-19T14:54:23.572Z,16.80
2019-05-19T14:56:52.062Z,16.78
2019-05-19T14:59:20.575Z,16.81
2019-05-19T15:01:49.112Z,16.83
2019-05-19T15:04:17.604Z,16.85
2019-05-19T15:06:46.162Z,16.79
2019-05-19T15:09:14.677Z,16.70
2019-05-19T15:11:43.161Z,16.63
2019-05-19T15:14:11.701Z,16.60
2019-05-19T15:16:40.163Z,16.56
2019-05-19T15:19:08.636Z,16.46
2019-05-19T15:21:37.159Z,16.46
2019-05-19T15:24:05.667Z,16.41
2019-05-19T15:26:34.162Z,16.36
2019-05-19T15:29:02.643Z,16.27
2019-05-19T15:31:31.163Z,16.15
2019-05-19T15:33:59.648Z,16.10
2019-05-19T15:36:28.174Z,16.02
2019-05-19T15:38:56.706Z,16.02
2019-05-19T15:41:25.362Z,16.06
2019-05-19T15:43:54.017Z,16.09
2019-05-19T15:46:22.553Z,16.18
2019-05-19T15:48:51.032Z,16.32
2019-05-19T15:51:28.458Z,16.42
2019-05-19T15:53:49.793Z,16.49
2019-05-19T15:56:18.377Z,16.61
2019-05-19T15:58:47.178Z,16.72
2019-05-19T16:01:15.679Z,16.73
2019-05-19T16:03:44.189Z,16.51
2019-05-19T16:06:12.695Z,16.41
2019-05-19T16:08:41.195Z,16.39
2019-05-19T16:11:09.867Z,16.38
2019-05-19T16:13:38.419Z,16.38
2019-05-19T16:16:06.878Z,16.40
2019-05-19T16:18:35.388Z,16.48
2019-05-19T16:21:04.090Z,16.46
2019-05-19T16:23:32.582Z,16.40
2019-05-19T16:26:01.154Z,16.28
2019-05-19T16:28:30.977Z,16.28
2019-05-19T16:30:59.771Z,16.25
2019-05-19T16:33:28.437Z,16.27
2019-05-19T16:35:57.107Z,16.26
2019-05-19T16:38:25.610Z,16.17
2019-05-19T16:40:54.175Z,16.05
2019-05-19T16:43:22.693Z,16.00
2019-05-19T16:45:51.193Z,15.93
2019-05-19T16:48:19.724Z,15.86
2019-05-19T16:50:48.249Z,15.78
2019-05-19T16:53:16.793Z,15.69
2019-05-19T16:55:45.356Z,15.67
2019-05-19T16:58:20.990Z,15.58
2019-05-19T17:00:44.740Z,15.51
2019-05-19T17:03:13.227Z,15.43
2019-05-19T17:05:41.754Z,15.26
2019-05-19T17:08:10.342Z,15.08
2019-05-19T17:10:38.952Z,14.89
2019-05-19T17:13:07.453Z,14.85
2019-05-19T17:15:36.113Z,14.74
2019-05-19T17:18:07.997Z,14.57
2019-05-19T17:20:35.171Z,14.48
2019-05-19T17:23:03.673Z,14.45
2019-05-19T17:25:32.183Z,14.40
2019-05-19T17:28:00.939Z,14.37
2019-05-19T17:30:29.515Z,14.32
2019-05-19T17:32:58.482Z,14.27
2019-05-19T17:35:27.213Z,14.25
2019-05-19T17:37:55.717Z,14.27
2019-05-19T17:40:24.287Z,14.26
2019-05-19T17:42:52.798Z,14.22
2019-05-19T17:45:21.438Z,14.17
2019-05-19T17:47:53.210Z,14.01
2019-05-19T17:50:32.007Z,13.92
2019-05-19T17:53:00.784Z,13.86
2019-05-19T17:55:29.965Z,13.91
2019-05-19T17:57:58.806Z,13.88
2019-05-19T18:00:44.406Z,13.90
2019-05-19T18:03:13.119Z,13.99
2019-05-19T18:05:41.611Z,14.05
2019-05-19T18:08:10.230Z,13.93
2019-05-19T18:10:38.892Z,13.84
2019-05-19T18:13:07.613Z,13.78
2019-05-19T18:15:36.941Z,13.73
2019-05-19T18:18:05.501Z,13.69
2019-05-19T18:20:33.983Z,13.63
2019-05-19T18:23:02.713Z,13.65
2019-05-19T18:25:31.274Z,13.71
2019-05-19T18:27:59.775Z,13.73
2019-05-19T18:30:28.260Z,13.74
2019-05-19T18:32:56.923Z,13.74
2019-05-19T18:35:25.435Z,13.72
2019-05-19T18:37:53.944Z,13.72
2019-05-19T18:40:22.577Z,13.72
2019-05-19T18:42:51.189Z,13.74
2019-05-19T18:45:19.831Z,13.78
2019-05-19T18:47:48.350Z,13.81
2019-05-19T18:50:16.981Z,13.75
2019-05-19T18:52:45.502Z,13.71
2019-05-19T18:55:14.082Z,13.66
2019-05-19T18:57:42.632Z,13.66
2019-05-19T19:00:11.545Z,13.69
2019-05-19T19:02:40.498Z,13.70
2019-05-19T19:05:09.242Z,13.58
2019-05-19T19:07:48.484Z,13.54
2019-05-19T19:10:17.124Z,13.53
2019-05-19T19:12:45.796Z,13.54
2019-05-19T19:15:14.736Z,13.58
2019-05-19T19:17:43.393Z,13.59
2019-05-19T19:20:12.141Z,13.53
2019-05-19T19:22:40.652Z,13.49
2019-05-19T19:25:09.274Z,13.49
2019-05-19T19:27:37.825Z,13.49
2019-05-19T19:30:07.850Z,13.51
2019-05-19T19:32:36.426Z,13.52
2019-05-19T19:35:06.928Z,13.57
2019-05-19T19:37:35.417Z,13.55
2019-05-19T19:40:05.787Z,13.49
2019-05-19T19:42:34.301Z,13.47
2019-05-19T19:45:02.905Z,13.50
2019-05-19T19:47:31.453Z,13.50
2019-05-19T19:49:59.991Z,13.42
2019-05-19T19:52:28.589Z,13.36
2019-05-19T19:54:57.140Z,13.35
2019-05-19T19:57:25.628Z,13.33
2019-05-19T19:59:54.121Z,13.23
2019-05-19T20:02:22.658Z,13.13
2019-05-19T20:04:51.167Z,13.09
2019-05-19T20:07:19.822Z,13.09
2019-05-19T20:09:48.371Z,13.15
2019-05-19T20:12:16.873Z,13.19
2019-05-19T20:14:45.394Z,13.25
2019-05-19T20:17:13.890Z,13.25
2019-05-19T20:19:42.392Z,13.19
2019-05-19T20:22:10.899Z,13.21
2019-05-19T20:24:39.445Z,13.24
2019-05-19T20:27:08.014Z,13.26
2019-05-19T20:29:36.527Z,13.23
2019-05-19T20:32:05.298Z,13.23
2019-05-19T20:34:33.866Z,13.18
2019-05-19T20:37:02.388Z,13.15
2019-05-19T20:39:30.881Z,13.12
2019-05-19T20:41:59.387Z,13.09
2019-05-19T20:44:27.855Z,13.08
2019-05-19T20:46:56.396Z,13.11
2019-05-19T20:49:24.905Z,13.14
2019-05-19T20:51:53.480Z,13.13
2019-05-19T20:54:22.088Z,13.06
2019-05-19T20:56:50.585Z,13.00
2019-05-19T20:59:19.159Z,12.93
2019-05-19T21:01:47.658Z,12.99
2019-05-19T21:04:16.323Z,13.02
2019-05-19T21:06:44.805Z,13.06
2019-05-19T21:09:13.313Z,13.11
2019-05-19T21:11:42.091Z,13.15
2019-05-19T21:14:10.579Z,13.17
2019-05-19T21:16:39.062Z,13.09
2019-05-19T21:19:07.587Z,13.02
2019-05-19T21:21:36.071Z,12.93
2019-05-19T21:24:04.641Z,12.84
2019-05-19T21:26:33.231Z,12.73
2019-05-19T21:29:01.905Z,12.63
2019-05-19T21:31:30.425Z,12.60
2019-05-19T21:33:58.929Z,12.61
2019-05-19T21:36:27.802Z,12.65
2019-05-19T21:38:56.280Z,12.65
2019-05-19T21:41:24.764Z,12.60
2019-05-19T21:43:53.288Z,12.60
2019-05-19T21:46:22.116Z,12.63
2019-05-19T21:48:50.607Z,12.63
2019-05-19T21:51:19.106Z,12.58
2019-05-19T21:53:48.661Z,12.52
2019-05-19T21:56:17.173Z,12.52
2019-05-19T21:58:45.687Z,12.58
2019-05-19T22:01:22.817Z,12.58
2019-05-19T22:03:44.472Z,12.53
2019-05-19T22:06:13.057Z,12.54
2019-05-19T22:08:41.623Z,12.51
2019-05-19T22:11:10.135Z,12.47
2019-05-19T22:13:38.975Z,12.39
2019-05-19T22:16:12.872Z,12.33
2019-05-19T22:18:37.715Z,12.35
2019-05-19T22:21:06.294Z,12.36
2019-05-19T22:23:34.795Z,12.34
2019-05-19T22:26:03.330Z,12.38
2019-05-19T22:28:31.822Z,12.41
2019-05-19T22:31:00.317Z,12.46
2019-05-19T22:33:29.004Z,12.51
2019-05-19T22:35:57.499Z,12.49
2019-05-19T22:38:25.969Z,12.49
2019-05-19T22:40:54.490Z,12.55
2019-05-19T22:43:23.026Z,12.60
2019-05-19T22:45:51.552Z,12.61
2019-05-19T22:48:20.158Z,12.65
2019-05-19T22:50:48.643Z,12.65
2019-05-19T22:53:17.141Z,12.58
2019-05-19T22:55:45.648Z,12.49
2019-05-19T22:58:14.144Z,12.51
2019-05-19T23:00:42.776Z,12.52
2019-05-19T23:03:11.280Z,12.51
2019-05-19T23:05:39.783Z,12.47
2019-05-19T23:08:08.476Z,12.41
2019-05-19T23:10:36.993Z,12.34
2019-05-19T23:13:08.180Z,12.29
2019-05-19T23:15:35.821Z,12.28
2019-05-19T23:18:04.338Z,12.23
2019-05-19T23:20:32.897Z,12.25
2019-05-19T23:23:01.481Z,12.29
2019-05-19T23:25:29.985Z,12.33
2019-05-19T23:27:58.516Z,12.33
2019-05-19T23:30:27.028Z,12.38
2019-05-19T23:32:55.523Z,12.41
2019-05-19T23:35:24.056Z,12.44
2019-05-19T23:37:52.616Z,12.48
2019-05-19T23:40:21.112Z,12.49
2019-05-19T23:42:49.605Z,12.47
2019-05-19T23:45:18.367Z,12.47
2019-05-19T23:47:46.865Z,12.50
2019-05-19T23:50:15.520Z,12.48
2019-05-19T23:52:44.022Z,12.39
2019-05-19T23:55:12.668Z,12.31
2019-05-19T23:57:41.178Z,12.29
